Weather at Camp Goffs Army Airfield [CLOSED]

Public forecast

Using degrees Fahrenheit for public forecast. Weather courtesy of forecast.io.

Closest aviation weather report (METAR) to Camp Goffs Army Airfield

Closest report is Needles Airport, 24.2 nm (44.8 km) ESE. Retrieved 2021/06/23 00:56 UTC (38 minutes ago):

KEED 230056Z AUTO 27013KT 10SM CLR 41/02 A2975 RMK AO2 SLP035 T04110022

Closest aviation forecast (TAF) to Camp Goffs Army Airfield

Closest forecast is Needles Airport, 24.2 nm (44.8 km) ESE. Retrieved 2021-06-23 00:22 UTC (1 hour ago):

TAF KEED 222320Z 2300/2324 23011G20KT P6SM SCT150 BKN250 FM230300 24008KT P6SM BKN150 BKN200 FM231100 18011G20KT P6SM VCSH BKN100 BKN200 FM231900 17011G20KT P6SM VCTS SCT080CB BKN100